Flight Track Log - Related Links

Times and Time Zones

All times are in EDT time to prevent confusion due to time zone crossing. See the AVA17 flight status page for this flight to view local times or setup timezone preferences in your user account.

Time Position Orientation Groundspeed Altitude Reporting Facility
EDT Latitude Longitude Course Direction KTS MPH feet Rate Location/Type
Wed 11:13:34 AM 40.4380 -3.5290 142° Southeast 195 224 3,400  Level FlightAware ADS-B
Wed 11:13:52 AM 40.4260 -3.5160 140° Southeast 196 226 3,900 1,538 Climbing FlightAware ADS-B
Wed 11:14:13 AM 40.4130 -3.5030 143° Southeast 197 227 4,400 1,565 Climbing FlightAware ADS-B
Wed 11:14:38 AM 40.3900 -3.4800 143° Southeast 201 231 5,100 957 Climbing FlightAware ADS-B
Wed 11:15:47 AM 40.3890 -3.4790 143° Southeast 244 281 5,900 1,248 Climbing FlightAware ADS-B
Wed 11:16:19 AM 40.3020 -3.3910 142° Southeast 265 305 7,200 2,348 Climbing FlightAware ADS-B
Wed 11:16:33 AM 40.2860 -3.3810 155° Southeast 263 303 7,700 2,000 Climbing FlightAware ADS-B
Wed 11:16:43 AM 40.2720 -3.3810 180° South 259 298 8,000 1,920 Climbing FlightAware ADS-B
Wed 11:16:58 AM 40.2550 -3.3900 202° Southwest 266 306 8,500 1,915 Climbing FlightAware ADS-B
Wed 11:17:30 AM 40.2200 -3.4120 206° Southwest 265 305 9,500 1,750 Climbing FlightAware ADS-B
Wed 11:17:46 AM 40.2080 -3.4270 224° Southwest 272 313 9,900 2,000 Climbing FlightAware ADS-B
Wed 11:17:54 AM 40.2030 -3.4430 248° West 270 311 10,300 1,556 Climbing FlightAware ADS-B
Wed 11:18:40 AM 40.2110 -3.5190 278° West 299 344 11,300 1,047 Climbing FlightAware ADS-B
Wed 11:19:20 AM 40.2220 -3.5950 281° West 334 384 11,800 815 Climbing FlightAware ADS-B
Wed 11:20:01 AM 40.2340 -3.6810 280° West 368 423 12,400 1,482 Climbing FlightAware ADS-B
Wed 11:20:45 AM 40.2480 -3.7790 281° West 377 434 13,900 1,955 Climbing FlightAware ADS-B
Wed 11:21:30 AM 40.2620 -3.8790 280° West 384 442 15,300 2,023 Climbing FlightAware ADS-B
Wed 11:22:11 AM 40.2530 -3.9740 263° West 386 444 16,800 1,950 Climbing FlightAware ADS-B
Wed 11:22:50 AM 40.2380 -4.0650 258° West 391 450 17,900 1,546 Climbing FlightAware ADS-B
Wed 11:23:48 AM 40.2380 -4.2040 270° West 402 463 19,300 1,484 Climbing FlightAware ADS-B
Wed 11:24:23 AM 40.2530 -4.2860 284° West 406 467 20,200 1,520 Climbing FlightAware ADS-B
Wed 11:25:03 AM 40.2690 -4.3810 282° West 412 474 21,200 1,482 Climbing FlightAware ADS-B
Wed 11:25:48 AM 40.2880 -4.4900 283° West 416 479 22,300 1,482 Climbing FlightAware ADS-B
Wed 11:26:28 AM 40.3050 -4.5890 283° West 419 482 23,300 1,341 Climbing FlightAware ADS-B
Wed 11:27:13 AM 40.3240 -4.7030 282° West 425 489 24,200 1,200 Climbing FlightAware ADS-B
Wed 11:27:53 AM 40.3420 -4.8060 283° West 430 495 25,000 1,125 Climbing FlightAware ADS-B
Wed 11:28:33 AM 40.3590 -4.9060 283° West 434 499 25,700 1,012 Climbing FlightAware ADS-B
Wed 11:29:16 AM 40.3760 -5.0110 282° West 437 503 26,400 960 Climbing FlightAware ADS-B
Wed 11:29:48 AM 40.3910 -5.1020 282° West 443 510 26,900 796 Climbing FlightAware ADS-B
Wed 11:30:54 AM 40.4120 -5.2290 262° West 444 511 27,700 257 Climbing FlightAware ADS-B
Wed 11:32:00 AM 40.3498 -5.4708 262° West  Level Estimated
Wed 11:32:55 AM 40.4520 -5.5010 281° West 444 511 27,700  Level FlightAware ADS-B
Wed 11:33:58 AM 40.4730 -5.6430 281° West 444 511 27,700 750 Level FlightAware ADS-B
Wed 11:34:39 AM 40.5160 -5.8720 284° West 459 528 29,000 929 Climbing FlightAware ADS-B
Wed 11:35:22 AM 40.5370 -6.0010 282° West 459 528 29,000  Level FlightAware ADS-B
Wed 11:36:00 AM 40.5530 -6.1050 281° West 463 533 29,000  Level FlightAware ADS-B
Wed 11:36:44 AM 40.5690 -6.2280 280° West 464 534 29,000  Level FlightAware ADS-B
Wed 11:37:40 AM 40.5690 -6.3860 270° West 466 536 29,000  Level FlightAware ADS-B
Wed 11:38:24 AM 40.5780 -6.5090 276° West 464 534 29,000  Level FlightAware ADS-B
Wed 11:39:04 AM 40.5890 -6.6160 278° West 465 535 29,000  Level FlightAware ADS-B
Wed 11:39:40 AM 40.6000 -6.7230 278° West 465 535 29,000  Level FlightAware ADS-B
Wed 11:40:23 AM 40.6120 -6.8370 278° West 464 534 29,000  Level FlightAware ADS-B
Wed 11:40:58 AM 40.6220 -6.9400 277° West 465 535 29,000  Level FlightAware ADS-B
Wed 11:41:38 AM 40.6330 -7.0460 278° West 466 536 29,000  Level FlightAware ADS-B
Wed 11:42:18 AM 40.6450 -7.1650 278° West 467 537 29,000  Level FlightAware ADS-B
Wed 11:42:58 AM 40.6550 -7.2760 277° West 466 536 29,000  Level FlightAware ADS-B
Wed 11:43:43 AM 40.6680 -7.4010 278° West 465 535 29,000  Level FlightAware ADS-B
Wed 11:44:28 AM 40.6790 -7.5220 277° West 466 536 29,000  Level FlightAware ADS-B
Wed 11:46:32 AM 40.7100 -7.8410 277° West 470 541 29,000  Level FlightAware ADS-B
Wed 11:47:18 AM 40.7240 -8.0020 277° West 469 540 29,000  Level FlightAware ADS-B
Wed 11:48:09 AM 40.7370 -8.1430 277° West 471 542 29,000  Level FlightAware ADS-B
Wed 11:48:54 AM 40.7500 -8.2810 277° West 472 543 29,000  Level FlightAware ADS-B
Wed 11:49:39 AM 40.7610 -8.4100 276° West 471 542 29,000  Level FlightAware ADS-B
Wed 11:50:19 AM 40.7710 -8.5250 277° West 471 542 29,000  Level FlightAware ADS-B
Wed 11:51:12 AM 40.7840 -8.6680 277° West 29,000  Level FlightAware ADS-B
Wed 11:51:53 AM 40.7940 -8.7920 276° West 470 541 29,000  Level FlightAware ADS-B
Wed 11:52:34 AM 40.8040 -8.9060 277° West 471 542 29,000  Level FlightAware ADS-B
Wed 11:53:13 AM 40.8130 -9.0190 276° West 472 543 29,000 324 Level FlightAware ADS-B
Wed 11:53:48 AM 40.8210 -9.1200 276° West 474 545 29,400 975 Climbing FlightAware ADS-B
Wed 11:54:33 AM 40.8320 -9.2460 277° West 471 542 30,300 1,059 Climbing FlightAware ADS-B
Wed 11:55:13 AM 40.8390 -9.3590 275° West 470 541 30,900 960 Climbing FlightAware ADS-B
Wed 11:55:48 AM 40.8360 -9.4660 268° West 471 542 31,500 867 Climbing FlightAware ADS-B
Wed 11:56:36 AM 40.8180 -9.5950 260° West 472 543 32,100 804 Climbing FlightAware ADS-B
Wed 11:57:25 AM 40.7820 -9.7270 250° West 470 541 32,800 683 Climbing FlightAware ADS-B
Wed 11:58:39 AM 40.7500 -9.8350 249° West 468 539 33,500 684 Climbing FlightAware ADS-B
Wed 11:59:19 AM 40.7170 -9.9410 248° West 466 536 34,100 867 Climbing FlightAware ADS-B
Wed 12:01:32 PM 40.5810 -10.3770 248° West 461 531 36,000 659 Climbing FlightAware ADS-B
Wed 12:02:12 PM 40.5480 -10.4820 248° West 460 529 36,000  Level FlightAware ADS-B
Wed 12:02:58 PM 40.5110 -10.5970 247° West 460 529 36,000  Level FlightAware ADS-B
Wed 12:03:42 PM 40.4760 -10.7090 248° West 458 527 36,000  Level FlightAware ADS-B
Wed 12:04:17 PM 40.4460 -10.8020 247° West 458 527 36,000  Level FlightAware ADS-B
Wed 12:04:57 PM 40.4580 -10.7670 66° East 458 527 36,000  Level FlightAware ADS-B
Wed 12:05:59 PM 40.4130 -10.9070 247° West 457 526 36,000  Level FlightAware ADS-B
Wed 12:06:56 PM 40.3810 -11.0060 247° West 458 527 36,000  Level FlightAware ADS-B
Wed 12:07:56 PM 40.3360 -11.1440 247° West 458 527 36,000  Level FlightAware ADS-B
Wed 12:08:27 PM 40.2410 -11.4360 247° West 459 528 36,000  Level FlightAware ADS-B
Wed 12:09:12 PM 40.2030 -11.5540 247° West 458 527 36,000  Level FlightAware ADS-B
Wed 12:10:27 PM 40.1440 -11.7340 247° West 457 526 36,000  Level FlightAware ADS-B
Wed 12:11:52 PM 40.0840 -11.9180 247° West 457 526 36,000  Level FlightAware ADS-B
Wed 12:12:57 PM 40.0200 -12.1030 246° West 453 521 36,000  Level FlightAware ADS-B
Wed 12:13:33 PM 39.9940 -12.1800 246° West 453 521 36,000  Level FlightAware ADS-B
Wed 12:14:45 PM 39.9420 -12.3330 246° West 453 521 36,000  Level FlightAware ADS-B
Wed 12:14:57 PM 39.9330 -12.3580 245° Southwest 453 521 36,000  Level FlightAware ADS-B
Wed 12:17:35 PM 39.8180 -12.6930 246° West 453 521 36,000  Level FlightAware ADS-B
Wed 12:18:18 PM 39.7870 -12.7840 246° West 453 521 36,000  Level FlightAware ADS-B
Wed 12:18:52 PM 39.7630 -12.8560 247° West 453 521 36,000  Level FlightAware ADS-B
Wed 12:19:29 PM 39.7360 -12.9340 246° West 453 521 36,000  Level FlightAware ADS-B
Wed 12:20:17 PM 39.7010 -13.0360 246° West 453 521 36,000  Level FlightAware ADS-B
Wed 12:20:53 PM 39.6750 -13.1120 246° West 453 521 36,000  Level FlightAware ADS-B
Wed 12:21:30 PM 39.6480 -13.1900 246° West 453 521 36,000  Level FlightAware ADS-B
Wed 12:24:00 PM 39.5714 -13.5969 256° West  Level Estimated
Wed 12:25:00 PM 39.5404 -13.7594 256° West  Level Estimated
Wed 12:26:00 PM 39.5091 -13.9218 256° West  Level Estimated
Wed 12:27:00 PM 39.4776 -14.0840 256° West  Level Estimated
Wed 12:28:00 PM 39.4459 -14.2461 256° West  Level Estimated
Wed 12:29:00 PM 39.4140 -14.4080 256° West  Level Estimated
Wed 12:30:00 PM 39.3818 -14.5698 256° West  Level Estimated
Wed 12:31:00 PM 39.3494 -14.7314 256° West  Level Estimated
Wed 12:32:00 PM 39.3168 -14.8929 255° West  Level Estimated
Wed 12:33:00 PM 39.2840 -15.0542 255° West  Level Estimated
Wed 12:34:00 PM 39.2509 -15.2154 255° West  Level Estimated
Wed 12:35:00 PM 39.2176 -15.3764 255° West  Level Estimated
Wed 12:36:00 PM 39.1841 -15.5373 255° West  Level Estimated
Wed 12:37:00 PM 39.1504 -15.6980 255° West  Level Estimated
Wed 12:38:00 PM 39.1165 -15.8586 255° West  Level Estimated
Wed 12:39:00 PM 39.0823 -16.0190 255° West  Level Estimated
Wed 12:40:00 PM 39.0479 -16.1792 255° West  Level Estimated
Wed 12:41:00 PM 39.0133 -16.3393 255° West  Level Estimated
Wed 12:42:00 PM 38.9785 -16.4993 254° West  Level Estimated
Wed 12:43:00 PM 38.9435 -16.6590 254° West  Level Estimated
Wed 12:44:00 PM 38.9082 -16.8187 254° West  Level Estimated
Wed 12:45:00 PM 38.8727 -16.9781 254° West  Level Estimated
Wed 12:46:00 PM 38.8371 -17.1374 254° West  Level Estimated
Wed 12:47:00 PM 38.8012 -17.2966 254° West  Level Estimated
Wed 12:48:00 PM 38.7650 -17.4555 254° West  Level Estimated
Wed 12:49:00 PM 38.7287 -17.6144 254° West  Level Estimated
Wed 12:50:00 PM 38.6921 -17.7730 254° West  Level Estimated
Wed 12:51:00 PM 38.6554 -17.9315 254° West  Level Estimated
Wed 12:52:00 PM 38.6184 -18.0899 253° West  Level Estimated
Wed 12:53:00 PM 38.5812 -18.2480 253° West  Level Estimated
Wed 12:54:00 PM 38.5438 -18.4060 253° West  Level Estimated
Wed 12:55:00 PM 38.5062 -18.5639 253° West  Level Estimated
Wed 12:56:00 PM 38.4684 -18.7215 253° West  Level Estimated
Wed 12:57:00 PM 38.4303 -18.8790 253° West  Level Estimated
Wed 12:58:00 PM 38.3921 -19.0364 253° West  Level Estimated
Wed 12:59:00 PM 38.3536 -19.1936 253° West  Level Estimated
Wed 01:00:00 PM 38.3149 -19.3506 253° West  Level Estimated
Wed 01:01:00 PM 38.2761 -19.5074 253° West  Level Estimated
Wed 01:02:00 PM 38.2370 -19.6641 252° West  Level Estimated
Wed 01:03:00 PM 38.1977 -19.8206 252° West  Level Estimated
Wed 01:04:00 PM 38.1582 -19.9769 252° West  Level Estimated
Wed 01:05:00 PM 38.1185 -20.1331 252° West  Level Estimated
Wed 01:06:00 PM 38.0785 -20.2891 252° West  Level Estimated
Wed 01:07:00 PM 38.0384 -20.4449 252° West  Level Estimated
Wed 01:08:00 PM 37.9981 -20.6005 252° West  Level Estimated
Wed 01:09:00 PM 37.9576 -20.7560 252° West  Level Estimated
Wed 01:10:00 PM 37.9168 -20.9113 252° West  Level Estimated
Wed 01:10:20 PM 37.8530 -20.9360 252° West 459 528 36,000  Level FlightAware ADS-B
Wed 01:10:57 PM 37.8390 -21.0190 258° West 459 528 36,000  Level FlightAware ADS-B
Wed 01:11:00 PM 37.8759 -21.0665 252° West  Level Estimated
Wed 01:11:51 PM 37.8190 -21.1390 258° West 459 528 36,000  Level FlightAware ADS-B
Wed 01:12:49 PM 37.7900 -21.3190 259° West 459 528 36,000  Level FlightAware ADS-B
Wed 01:13:42 PM 37.7640 -21.4760 258° West 459 528 36,000  Level FlightAware ADS-B
Wed 01:14:22 PM 37.7480 -21.5720 258° West 459 528 36,000  Level FlightAware ADS-B
Wed 01:16:11 PM 37.7110 -21.7940 258° West 458 527 36,000  Level FlightAware ADS-B
Wed 01:16:49 PM 37.6840 -21.9490 258° West 458 527 36,000  Level FlightAware ADS-B
Wed 01:17:23 PM 37.6730 -22.0170 258° West 457 526 36,000  Level FlightAware ADS-B
Wed 01:18:04 PM 37.6510 -22.1440 258° West 456 525 36,000  Level FlightAware ADS-B
Wed 01:18:49 PM 37.6360 -22.2320 258° West 455 524 36,000  Level FlightAware ADS-B
Wed 01:19:28 PM 37.6110 -22.3710 257° West 455 524 36,000  Level FlightAware ADS-B
Wed 01:20:06 PM 37.5990 -22.4400 258° West 454 522 36,000  Level FlightAware ADS-B
Wed 01:20:52 PM 37.5790 -22.5520 257° West 453 521 36,000  Level FlightAware ADS-B
Wed 01:21:51 PM 37.5410 -22.7660 257° West 452 520 36,000  Level FlightAware ADS-B
Wed 01:22:26 PM 37.5250 -22.8570 258° West 453 521 36,000  Level FlightAware ADS-B
Wed 01:22:51 PM 37.5140 -22.9170 257° West 453 521 36,000  Level FlightAware ADS-B
Wed 01:23:36 PM 37.4930 -23.0340 257° West 453 521 36,000  Level FlightAware ADS-B
Wed 01:24:15 PM 37.4770 -23.1220 257° West 453 521 36,000  Level FlightAware ADS-B
Wed 01:24:53 PM 37.4670 -23.1770 257° West 452 520 36,000  Level FlightAware ADS-B
Wed 01:25:35 PM 37.4400 -23.3260 257° West 451 519 36,000  Level FlightAware ADS-B
Wed 01:26:33 PM 37.4180 -23.4440 257° West 450 518 36,000  Level FlightAware ADS-B
Wed 01:27:06 PM 37.3950 -23.5710 257° West 449 517 36,000  Level FlightAware ADS-B
Wed 01:27:53 PM 37.3740 -23.6780 256° West 450 518 36,000  Level FlightAware ADS-B
Wed 01:28:37 PM 37.3510 -23.8030 257° West 451 519 36,000  Level FlightAware ADS-B
Wed 01:29:18 PM 37.3310 -23.9070 256° West 452 520 36,000  Level FlightAware ADS-B
Wed 01:30:31 PM 37.3090 -24.0250 257° West 453 521 36,000  Level FlightAware ADS-B
Wed 01:31:15 PM 37.2750 -24.2020 256° West 448 516 36,000  Level FlightAware ADS-B
Wed 01:31:58 PM 37.2540 -24.3140 257° West 447 514 36,000  Level FlightAware ADS-B
Wed 01:33:04 PM 37.2210 -24.4800 256° West 445 512 36,000  Level FlightAware ADS-B
Wed 01:33:49 PM 37.1990 -24.5940 256° West 444 511 36,000  Level FlightAware ADS-B
Wed 01:34:24 PM 37.1820 -24.6810 256° West 446 513 36,000  Level FlightAware ADS-B
Wed 01:35:04 PM 37.1620 -24.7820 256° West 447 514 36,000  Level FlightAware ADS-B
Wed 01:35:49 PM 37.1400 -24.8960 256° West 445 512 36,000  Level FlightAware ADS-B
Wed 01:36:24 PM 37.1230 -24.9810 256° West 444 511 36,000  Level FlightAware ADS-B
Wed 01:37:04 PM 37.1030 -25.0810 256° West 443 510 36,000 73 Level FlightAware ADS-B
Wed 01:37:46 PM 37.0820 -25.1840 256° West 443 510 36,100 706 Climbing FlightAware ADS-B
Wed 01:38:29 PM 37.0590 -25.2970 256° West 435 501 37,000 818 Climbing FlightAware ADS-B
Wed 01:39:14 PM 37.0370 -25.4070 256° West 447 514 37,300 419 Climbing FlightAware ADS-B
Wed 01:39:55 PM 37.0170 -25.5050 256° West 449 517 37,600 525 Climbing FlightAware ADS-B
Wed 01:40:34 PM 36.9960 -25.6040 255° West 449 517 38,000 267 Climbing FlightAware ADS-B
Wed 01:41:25 PM 36.9720 -25.7240 256° West 447 514 38,000  Level FlightAware ADS-B
Wed 01:42:04 PM 36.9490 -25.8330 255° West 445 512 38,000  Level FlightAware ADS-B
Wed 01:42:45 PM 36.9290 -25.9320 256° West 444 511 38,000  Level FlightAware ADS-B
Wed 01:43:30 PM 36.9060 -26.0410 255° West 443 510 38,000  Level FlightAware ADS-B
Wed 01:44:15 PM 36.8830 -26.1510 255° West 441 507 38,000  Level FlightAware ADS-B
Wed 01:44:50 PM 36.8640 -26.2390 255° West 441 507 38,000  Level FlightAware ADS-B
Wed 01:45:50 PM 36.8390 -26.3570 255° West 441 507 38,000  Level FlightAware ADS-B
Wed 01:46:40 PM 36.8060 -26.5100 255° West 442 509 38,000  Level FlightAware ADS-B
Wed 01:47:15 PM 36.7880 -26.5970 256° West 442 509 38,000  Level FlightAware ADS-B
Wed 01:48:00 PM 36.7650 -26.7050 255° West 442 509 38,000  Level FlightAware ADS-B
Wed 01:48:35 PM 36.7460 -26.7920 255° West 442 509 38,000  Level FlightAware ADS-B
Wed 01:49:15 PM 36.7250 -26.8880 255° West 441 507 38,000  Level FlightAware ADS-B
Wed 01:50:00 PM 36.7000 -27.0010 255° West 440 506 38,000  Level FlightAware ADS-B
Wed 01:50:40 PM 36.6790 -27.0980 255° West 441 507 38,000  Level FlightAware ADS-B
Wed 01:51:20 PM 36.6570 -27.1990 255° West 443 510 38,000  Level FlightAware ADS-B
Wed 01:52:10 PM 36.6300 -27.3180 254° West 444 511 38,000  Level FlightAware ADS-B
Wed 01:52:45 PM 36.6110 -27.4040 255° West 443 510 38,000  Level FlightAware ADS-B
Wed 01:53:26 PM 36.5890 -27.5030 255° West 443 510 38,000  Level FlightAware ADS-B
Wed 01:54:15 PM 36.5620 -27.6240 255° West 442 509 38,000  Level FlightAware ADS-B
Wed 01:55:00 PM 36.5360 -27.7370 254° West 441 507 38,000  Level FlightAware ADS-B
Wed 01:55:46 PM 36.5110 -27.8470 254° West 440 506 38,000  Level FlightAware ADS-B
Wed 01:56:25 PM 36.4890 -27.9460 255° West 441 507 38,000  Level FlightAware ADS-B
Wed 01:57:10 PM 36.4640 -28.0550 254° West 442 509 38,000  Level FlightAware ADS-B
Wed 01:57:50 PM 36.4410 -28.1540 254° West 443 510 38,000  Level FlightAware ADS-B
Wed 01:58:30 PM 36.4190 -28.2520 254° West 444 511 38,000  Level FlightAware ADS-B
Wed 01:59:15 PM 36.3940 -28.3610 254° West 445 512 38,000  Level FlightAware ADS-B
Wed 01:59:50 PM 36.3750 -28.4420 254° West 445 512 38,000  Level FlightAware ADS-B
Wed 02:01:06 PM 36.3440 -28.5730 254° West 448 516 38,000  Level FlightAware ADS-B
Wed 02:01:49 PM 36.3130 -28.7050 254° West 446 513 38,000  Level FlightAware ADS-B
Wed 02:02:35 PM 36.2780 -28.8550 254° West 443 510 38,000  Level FlightAware ADS-B
Wed 02:03:26 PM 36.2500 -28.9730 254° West 444 511 38,000  Level FlightAware ADS-B
Wed 02:04:05 PM 36.2250 -29.0760 253° West 444 511 38,000  Level FlightAware ADS-B
Wed 02:04:50 PM 36.2000 -29.1800 253° West 448 516 38,000  Level FlightAware ADS-B
Wed 02:05:35 PM 36.1750 -29.2830 253° West 448 516 38,000  Level FlightAware ADS-B
Wed 02:06:17 PM 36.1490 -29.3920 254° West 449 517 38,000  Level FlightAware ADS-B
Wed 02:07:00 PM 36.1270 -29.4820 253° West 449 517 38,000  Level FlightAware ADS-B
Wed 02:07:42 PM 36.1040 -29.5790 254° West 449 517 38,000  Level FlightAware ADS-B
Wed 02:08:23 PM 36.0800 -29.6740 253° West 449 517 38,000  Level FlightAware ADS-B
Wed 02:09:20 PM 36.0400 -29.8400 253° West 38,000  Level FlightAware ADS-B
Wed 02:10:25 PM 35.9990 -30.0030 253° West 449 517 38,000  Level FlightAware ADS-B
Wed 02:11:47 PM 35.9370 -30.1780 246° West 452 520 38,000  Level FlightAware ADS-B
Wed 02:12:00 PM 36.0000 -30.0000 247° West 479 551 38,000  Level ETMS Enhanced Traffic Management System
Wed 02:12:30 PM 35.8950 -30.3050 248° West 457 526 38,000  Level FlightAware ADS-B
Wed 02:13:10 PM 35.8620 -30.4010 247° West 457 526 38,000  Level FlightAware ADS-B
Wed 02:13:50 PM 35.8290 -30.4960 247° West 458 527 38,000  Level FlightAware ADS-B
Wed 02:14:32 PM 35.7960 -30.5920 247° West 460 529 38,000  Level FlightAware ADS-B
Wed 02:15:44 PM 35.7390 -30.7550 247° West 460 529 38,000  Level FlightAware ADS-B
Wed 02:16:25 PM 35.6990 -30.8680 246° West 458 527 38,000  Level FlightAware ADS-B
Wed 02:17:10 PM 35.6690 -30.9530 247° West 458 527 38,000  Level FlightAware ADS-B
Wed 02:17:52 PM 35.6390 -31.0400 247° West 38,000  Level FlightAware ADS-B
Wed 02:19:00 PM 35.5256 -31.3581 246° West 479 551 38,000  Level FlightAware Transoceanic
Wed 02:20:00 PM 35.4720 -31.5080 246° West 479 551 38,000  Level FlightAware Transoceanic
Wed 02:20:25 PM 35.4970 -31.4390 246° West 454 522 38,000  Level FlightAware ADS-B
Wed 02:21:03 PM 35.4710 -31.5130 247° West 455 524 38,000  Level FlightAware ADS-B
Wed 02:21:51 PM 35.4380 -31.6100 247° West 455 524 38,000 645 Level FlightAware ADS-B
Wed 02:22:36 PM 35.3880 -31.7430 245° Southwest 461 531 39,000 652 Climbing FlightAware ADS-B
Wed 02:23:23 PM 35.3500 -31.8500 246° West 463 533 39,000  Level FlightAware ADS-B
Wed 02:24:05 PM 35.3070 -31.9660 246° West 460 529 39,000  Level FlightAware ADS-B
Wed 02:24:40 PM 35.2810 -32.0390 246° West 460 529 39,000  Level FlightAware ADS-B
Wed 02:25:20 PM 35.2430 -32.1400 245° Southwest 459 528 39,000  Level FlightAware ADS-B
Wed 02:25:55 PM 35.2110 -32.2280 246° West 459 528 39,000  Level FlightAware ADS-B
Wed 02:26:45 PM 35.1670 -32.3480 246° West 459 528 39,000  Level FlightAware ADS-B
Wed 02:27:28 PM 35.1350 -32.4350 246° West 465 535 39,000  Level FlightAware ADS-B
Wed 02:28:04 PM 35.1070 -32.5070 245° Southwest 465 535 39,000  Level FlightAware ADS-B
Wed 02:28:52 PM 35.0700 -32.6050 245° Southwest 465 535 39,000  Level FlightAware ADS-B
Wed 02:29:28 PM 35.0420 -32.6780 245° Southwest 465 535 39,000  Level FlightAware ADS-B
Wed 02:30:32 PM 34.9920 -32.8070 245° Southwest 465 535 39,000  Level FlightAware ADS-B
Wed 02:31:20 PM 34.9550 -32.9040 245° Southwest 465 535 39,000  Level FlightAware ADS-B
Wed 02:31:57 PM 34.9270 -32.9790 246° West 465 535 39,000  Level FlightAware ADS-B
Wed 02:32:34 PM 34.8980 -33.0540 245° Southwest 465 535 39,000  Level FlightAware ADS-B
Wed 02:33:22 PM 34.8610 -33.1510 245° Southwest 465 535 39,000  Level FlightAware ADS-B
Wed 02:34:10 PM 34.8240 -33.2480 245° Southwest 465 535 39,000  Level FlightAware ADS-B
Wed 02:34:46 PM 34.7960 -33.3200 245° Southwest 465 535 39,000  Level FlightAware ADS-B
Wed 02:35:34 PM 34.7590 -33.4170 245° Southwest 465 535 39,000  Level FlightAware ADS-B
Wed 02:36:10 PM 34.7310 -33.4900 245° Southwest 465 535 39,000  Level FlightAware ADS-B
Wed 02:36:58 PM 34.6940 -33.5860 245° Southwest 465 535 39,000  Level FlightAware ADS-B
Wed 02:39:00 PM 34.5830 -33.8751 245° Southwest  Level FlightAware Approximate
Wed 02:40:00 PM 34.5282 -34.0170 245° Southwest  Level FlightAware Approximate
Wed 02:41:00 PM 34.4732 -34.1587 245° Southwest  Level FlightAware Approximate
Wed 02:42:00 PM 34.4180 -34.3002 245° Southwest  Level FlightAware Approximate
Wed 02:43:00 PM 34.3627 -34.4416 245° Southwest  Level FlightAware Approximate
Wed 02:44:00 PM 34.3072 -34.5827 245° Southwest  Level FlightAware Approximate
Wed 02:45:00 PM 34.2516 -34.7237 245° Southwest  Level FlightAware Approximate
Wed 02:46:00 PM 34.1958 -34.8644 244° Southwest  Level FlightAware Approximate
Wed 02:47:00 PM 34.1398 -35.0050 244° Southwest  Level FlightAware Approximate
Wed 02:48:00 PM 34.0836 -35.1454 244° Southwest  Level FlightAware Approximate
Wed 02:49:00 PM 34.0274 -35.2856 244° Southwest  Level FlightAware Approximate
Wed 02:50:00 PM 33.9709 -35.4257 244° Southwest  Level FlightAware Approximate
Wed 02:51:00 PM 33.9143 -35.5655 244° Southwest  Level FlightAware Approximate
Wed 02:52:00 PM 33.8576 -35.7052 244° Southwest  Level FlightAware Approximate
Wed 02:53:00 PM 33.8006 -35.8446 244° Southwest  Level FlightAware Approximate
Wed 02:54:00 PM 33.7435 -35.9839 244° Southwest  Level FlightAware Approximate
Wed 02:55:00 PM 33.6863 -36.1230 244° Southwest  Level FlightAware Approximate
Wed 02:56:00 PM 33.6289 -36.2619 244° Southwest  Level FlightAware Approximate
Wed 02:57:00 PM 33.5714 -36.4007 244° Southwest  Level FlightAware Approximate
Wed 02:58:00 PM 33.5137 -36.5392 243° Southwest  Level FlightAware Approximate
Wed 02:59:00 PM 33.4558 -36.6776 243° Southwest  Level FlightAware Approximate
Wed 03:00:00 PM 33.3978 -36.8157 243° Southwest  Level FlightAware Approximate
Wed 03:01:00 PM 33.3397 -36.9537 243° Southwest  Level FlightAware Approximate
Wed 03:02:00 PM 33.2814 -37.0915 243° Southwest  Level FlightAware Approximate
Wed 03:03:00 PM 33.2229 -37.2291 243° Southwest  Level FlightAware Approximate
Wed 03:04:00 PM 33.1643 -37.3666 243° Southwest  Level FlightAware Approximate
Wed 03:05:00 PM 33.1055 -37.5038 243° Southwest  Level FlightAware Approximate
Wed 03:06:00 PM 33.0466 -37.6409 243° Southwest  Level FlightAware Approximate
Wed 03:07:00 PM 32.9875 -37.7778 243° Southwest  Level FlightAware Approximate
Wed 03:08:00 PM 32.9283 -37.9145 243° Southwest  Level FlightAware Approximate
Wed 03:09:00 PM 32.8690 -38.0510 243° Southwest  Level FlightAware Approximate
Wed 03:10:00 PM 32.8095 -38.1874 243° Southwest  Level FlightAware Approximate
Wed 03:11:00 PM 32.7498 -38.3235 243° Southwest  Level FlightAware Approximate
Wed 03:12:00 PM 32.6900 -38.4595 242° Southwest  Level FlightAware Approximate
Wed 03:13:00 PM 32.6300 -38.5953 242° Southwest  Level FlightAware Approximate
Wed 03:14:00 PM 32.5699 -38.7309 242° Southwest  Level FlightAware Approximate
Wed 03:15:00 PM 32.5097 -38.8663 242° Southwest  Level FlightAware Approximate
Wed 03:16:00 PM 32.4493 -39.0016 242° Southwest  Level FlightAware Approximate
Wed 03:17:00 PM 32.3891 -39.1369 242° Southwest  Level FlightAware Approximate
Wed 03:18:00 PM 32.3288 -39.2720 242° Southwest  Level FlightAware Approximate
Wed 03:19:00 PM 32.2684 -39.4069 242° Southwest  Level FlightAware Approximate
Wed 03:20:00 PM 32.2078 -39.5416 242° Southwest  Level FlightAware Approximate
Wed 03:21:00 PM 32.1470 -39.6762 242° Southwest  Level FlightAware Approximate
Wed 03:22:00 PM 32.0862 -39.8106 242° Southwest  Level FlightAware Approximate
Wed 03:23:00 PM 32.0251 -39.9448 242° Southwest  Level FlightAware Approximate
Wed 03:24:00 PM 31.9586 -40.0751 237° Southwest  Level FlightAware Approximate
Wed 03:25:00 PM 31.8881 -40.2025 237° Southwest  Level FlightAware Approximate
Wed 03:26:00 PM 31.8174 -40.3297 237° Southwest  Level FlightAware Approximate
Wed 03:27:00 PM 31.7467 -40.4567 237° Southwest  Level FlightAware Approximate
Wed 03:28:00 PM 31.6758 -40.5835 237° Southwest  Level FlightAware Approximate
Wed 03:29:00 PM 31.6048 -40.7101 237° Southwest  Level FlightAware Approximate
Wed 03:29:38 PM 32.0000 -40.0000 238° Southwest 465 535 39,000  Level New York Oceanic (ODAPS)
Wed 03:30:00 PM 31.5336 -40.8366 237° Southwest  Level FlightAware Approximate
Wed 03:31:00 PM 31.4641 -40.9641 238° Southwest  Level FlightAware Approximate
Wed 03:32:00 PM 31.3950 -41.0919 238° Southwest  Level FlightAware Approximate
Wed 03:33:00 PM 31.3257 -41.2194 238° Southwest  Level FlightAware Approximate
Wed 03:34:00 PM 31.2563 -41.3468 238° Southwest  Level FlightAware Approximate
Wed 03:35:00 PM 31.1868 -41.4740 237° Southwest  Level FlightAware Approximate
Wed 03:36:00 PM 30.8897 -42.0449 237° Southwest 465 535 39,000  Level FlightAware Transoceanic
Wed 03:37:00 PM 30.8192 -42.1711 237° Southwest 465 535 39,000  Level FlightAware Transoceanic
Wed 03:38:00 PM 30.7486 -42.2971 237° Southwest 465 535 39,000  Level FlightAware Transoceanic
Wed 03:39:00 PM 30.6779 -42.4230 237° Southwest 465 535 39,000  Level FlightAware Transoceanic
Wed 03:40:00 PM 30.6071 -42.5486 237° Southwest 465 535 39,000  Level FlightAware Transoceanic
Wed 03:41:00 PM 30.5361 -42.6741 237° Southwest 465 535 39,000  Level FlightAware Transoceanic
Wed 03:42:00 PM 30.4651 -42.7994 237° Southwest 465 535 39,000  Level FlightAware Transoceanic
Wed 03:43:00 PM 30.3939 -42.9245 237° Southwest 465 535 39,000  Level FlightAware Transoceanic
Wed 03:44:00 PM 30.3226 -43.0494 236° Southwest 465 535 39,000  Level FlightAware Transoceanic
Wed 03:45:00 PM 30.2511 -43.1741 236° Southwest 465 535 39,000  Level FlightAware Transoceanic
Wed 03:46:00 PM 30.1796 -43.2987 236° Southwest 465 535 39,000  Level FlightAware Transoceanic
Wed 03:47:00 PM 30.1079 -43.4231 236° Southwest 465 535 39,000  Level FlightAware Transoceanic
Wed 03:48:00 PM 30.0362 -43.5473 236° Southwest 465 535 39,000  Level FlightAware Transoceanic
Wed 03:49:00 PM 29.9643 -43.6713 236° Southwest 465 535 39,000  Level FlightAware Transoceanic
Wed 03:50:00 PM 29.8923 -43.7951 236° Southwest 465 535 39,000  Level FlightAware Transoceanic
Wed 03:51:00 PM 29.8201 -43.9188 236° Southwest 465 535 39,000  Level FlightAware Transoceanic
Wed 03:52:00 PM 29.7479 -44.0423 236° Southwest 465 535 39,000  Level FlightAware Transoceanic
Wed 03:53:00 PM 29.6755 -44.1656 236° Southwest 465 535 39,000  Level FlightAware Transoceanic
Wed 03:54:00 PM 29.6031 -44.2887 236° Southwest 465 535 39,000  Level FlightAware Transoceanic
Wed 03:55:00 PM 29.5305 -44.4116 236° Southwest 465 535 39,000  Level FlightAware Transoceanic
Wed 03:56:00 PM 29.4578 -44.5344 236° Southwest 465 535 39,000  Level FlightAware Transoceanic
Wed 03:57:00 PM 29.3850 -44.6570 236° Southwest 465 535 39,000  Level FlightAware Transoceanic
Wed 03:58:00 PM 29.3121 -44.7794 236° Southwest 465 535 39,000  Level FlightAware Transoceanic
Wed 03:59:00 PM 29.2390 -44.9016 236° Southwest 465 535 39,000  Level FlightAware Transoceanic
Wed 04:00:00 PM 29.1659 -45.0237 236° Southwest 465 535 39,000  Level FlightAware Transoceanic
Wed 04:01:00 PM 29.0926 -45.1456 235° Southwest 465 535 39,000  Level FlightAware Transoceanic
Wed 04:02:00 PM 29.0193 -45.2673 235° Southwest 465 535 39,000  Level FlightAware Transoceanic
Wed 04:03:00 PM 28.9458 -45.3889 235° Southwest 465 535 39,000  Level FlightAware Transoceanic
Wed 04:04:00 PM 28.8722 -45.5103 235° Southwest 465 535 39,000  Level FlightAware Transoceanic
Wed 04:05:00 PM 28.7985 -45.6315 235° Southwest 465 535 39,000  Level FlightAware Transoceanic
Wed 04:06:00 PM 28.7247 -45.7525 235° Southwest 465 535 39,000  Level FlightAware Transoceanic
Wed 04:07:00 PM 28.6508 -45.8734 235° Southwest 465 535 39,000  Level FlightAware Transoceanic
Wed 04:08:00 PM 28.5768 -45.9941 235° Southwest 465 535 39,000  Level FlightAware Transoceanic
Wed 04:09:00 PM 28.5027 -46.1146 235° Southwest 465 535 39,000  Level FlightAware Transoceanic
Wed 04:10:00 PM 28.4285 -46.2349 235° Southwest 465 535 39,000  Level FlightAware Transoceanic
Wed 04:11:00 PM 28.3541 -46.3551 235° Southwest 465 535 39,000  Level FlightAware Transoceanic
Wed 04:12:00 PM 28.2797 -46.4751 235° Southwest 465 535 39,000  Level FlightAware Transoceanic
Wed 04:13:00 PM 28.2052 -46.5950 235° Southwest 465 535 39,000  Level FlightAware Transoceanic
Wed 04:14:00 PM 28.1305 -46.7147 235° Southwest 465 535 39,000  Level FlightAware Transoceanic
Wed 04:15:00 PM 28.0558 -46.8342 235° Southwest 465 535 39,000  Level FlightAware Transoceanic
Wed 04:16:00 PM 27.9809 -46.9535 235° Southwest 465 535 39,000  Level FlightAware Transoceanic
Wed 04:17:00 PM 27.9060 -47.0727 235° Southwest 465 535 39,000  Level FlightAware Transoceanic
Wed 04:18:00 PM 27.8309 -47.1917 234° Southwest 465 535 39,000  Level FlightAware Transoceanic
Wed 04:19:00 PM 27.7558 -47.3106 234° Southwest 465 535 39,000  Level FlightAware Transoceanic
Wed 04:20:00 PM 27.6805 -47.4293 234° Southwest 465 535 39,000  Level FlightAware Transoceanic
Wed 04:21:00 PM 27.6051 -47.5478 234° Southwest 465 535 39,000  Level FlightAware Transoceanic
Wed 04:22:00 PM 27.5297 -47.6662 234° Southwest 465 535 39,000  Level FlightAware Transoceanic
Wed 04:23:00 PM 27.4541 -47.7844 234° Southwest 465 535 39,000  Level FlightAware Transoceanic
Wed 04:24:00 PM 27.3784 -47.9024 234° Southwest 465 535 39,000  Level FlightAware Transoceanic
Wed 04:25:00 PM 27.3027 -48.0203 234° Southwest 465 535 39,000  Level FlightAware Transoceanic
Wed 04:26:00 PM 27.2268 -48.1380 234° Southwest 465 535 39,000  Level FlightAware Transoceanic
Wed 04:27:00 PM 27.1509 -48.2556 234° Southwest 465 535 39,000  Level FlightAware Transoceanic
Wed 04:28:00 PM 27.0748 -48.3730 234° Southwest 465 535 39,000  Level FlightAware Transoceanic
Wed 04:29:00 PM 26.9986 -48.4902 234° Southwest 465 535 39,000  Level FlightAware Transoceanic
Wed 04:30:00 PM 26.9224 -48.6073 234° Southwest 465 535 39,000  Level FlightAware Transoceanic
Wed 04:31:00 PM 26.8461 -48.7242 234° Southwest 465 535 39,000  Level FlightAware Transoceanic
Wed 04:32:00 PM 26.7696 -48.8409 234° Southwest 465 535 39,000  Level FlightAware Transoceanic
Wed 04:33:00 PM 26.6931 -48.9576 234° Southwest 465 535 39,000  Level FlightAware Transoceanic
Wed 04:34:00 PM 26.6164 -49.0740 234° Southwest 465 535 39,000  Level FlightAware Transoceanic
Wed 04:35:00 PM 26.5397 -49.1903 234° Southwest 465 535 39,000  Level FlightAware Transoceanic
Wed 04:36:00 PM 26.4629 -49.3064 234° Southwest 465 535 39,000  Level FlightAware Transoceanic
Wed 04:37:00 PM 26.3860 -49.4224 233° Southwest 465 535 39,000  Level FlightAware Transoceanic
Wed 04:38:00 PM 26.3090 -49.5382 233° Southwest 465 535 39,000  Level FlightAware Transoceanic
Wed 04:39:00 PM 26.2319 -49.6539 233° Southwest 465 535 39,000  Level FlightAware Transoceanic
Wed 04:40:00 PM 26.1547 -49.7694 233° Southwest 465 535 39,000  Level FlightAware Transoceanic
Wed 04:41:00 PM 26.0774 -49.8848 233° Southwest 465 535 39,000  Level FlightAware Transoceanic
Wed 04:42:00 PM 26.0000 -50.0000 224° Southwest 465 535 39,000  Level FlightAware Transoceanic
Wed 04:43:00 PM 25.9094 -50.0986 224° Southwest 465 535 39,000  Level FlightAware Transoceanic
Wed 04:44:00 PM 25.8187 -50.1971 224° Southwest 465 535 39,000  Level FlightAware Transoceanic
Wed 04:45:00 PM 25.7280 -50.2954 224° Southwest 465 535 39,000 566 Level FlightAware Transoceanic
Wed 04:45:46 PM 32.0000 -40.0000 238° Southwest 463 533 40,000  Climbing New York Oceanic (ODAPS)
Wed 04:46:00 PM 25.6372 -50.3936 224° Southwest 465 535 39,000 -811 Descending FlightAware Transoceanic
Wed 04:47:00 PM 25.5464 -50.4916 224° Southwest 465 535 39,000  Level FlightAware Transoceanic
Wed 04:48:00 PM 25.4554 -50.5895 224° Southwest 465 535 39,000 896 Level FlightAware Transoceanic
Wed 04:48:07 PM 26.0000 -50.0000 224° Southwest 455 524 40,000  Climbing New York Oceanic (ODAPS)
Wed 04:49:00 PM 25.3644 -50.6873 224° Southwest 465 535 39,000 -531 Descending FlightAware Transoceanic
Wed 04:50:00 PM 25.2734 -50.7849 224° Southwest 465 535 39,000  Level FlightAware Transoceanic
Wed 04:51:00 PM 25.1823 -50.8823 224° Southwest 465 535 39,000 500 Level FlightAware Transoceanic
Wed 04:52:00 PM 25.0803 -50.9910 224° Southwest 463 533 40,000 500 Climbing FlightAware Transoceanic
Wed 04:53:00 PM 24.9880 -51.0893 224° Southwest 463 533 40,000  Level FlightAware Transoceanic
Wed 04:54:00 PM 24.8171 -51.2706 224° Southwest 455 524 40,000  Level FlightAware Transoceanic
Wed 04:55:00 PM 24.7257 -51.3673 224° Southwest 455 524 40,000  Level FlightAware Transoceanic
Wed 04:56:00 PM 24.6342 -51.4639 224° Southwest 455 524 40,000  Level FlightAware Transoceanic
Wed 04:57:00 PM 24.5427 -51.5603 224° Southwest 455 524 40,000  Level FlightAware Transoceanic
Wed 04:58:00 PM 24.4510 -51.6566 224° Southwest 455 524 40,000  Level FlightAware Transoceanic
Wed 04:59:00 PM 24.3594 -51.7528 224° Southwest 455 524 40,000  Level FlightAware Transoceanic
Wed 05:00:00 PM 24.2676 -51.8488 224° Southwest 455 524 40,000  Level FlightAware Transoceanic
Wed 05:01:00 PM 24.1758 -51.9447 224° Southwest 455 524 40,000  Level FlightAware Transoceanic
Wed 05:02:00 PM 24.0840 -52.0404 224° Southwest 455 524 40,000  Level FlightAware Transoceanic
Wed 05:03:00 PM 23.9920 -52.1360 224° Southwest 455 524 40,000  Level FlightAware Transoceanic
Wed 05:04:00 PM 23.9000 -52.2315 223° Southwest 455 524 40,000  Level FlightAware Transoceanic
Wed 05:05:00 PM 23.8080 -52.3268 223° Southwest 455 524 40,000  Level FlightAware Transoceanic
Wed 05:06:00 PM 23.7159 -52.4220 223° Southwest 455 524 40,000  Level FlightAware Transoceanic
Wed 05:07:00 PM 23.6238 -52.5171 223° Southwest 455 524 40,000  Level FlightAware Transoceanic
Wed 05:08:00 PM 23.5315 -52.6120 223° Southwest 455 524 40,000  Level FlightAware Transoceanic
Wed 05:09:00 PM 23.4393 -52.7068 223° Southwest 455 524 40,000  Level FlightAware Transoceanic
Wed 05:10:00 PM 23.3470 -52.8014 223° Southwest 455 524 40,000  Level FlightAware Transoceanic
Wed 05:11:00 PM 23.2546 -52.8960 223° Southwest 455 524 40,000  Level FlightAware Transoceanic
Wed 05:12:00 PM 23.1621 -52.9904 223° Southwest 455 524 40,000  Level FlightAware Transoceanic
Wed 05:13:00 PM 23.0696 -53.0846 223° Southwest 455 524 40,000  Level FlightAware Transoceanic
Wed 05:14:00 PM 22.9771 -53.1788 223° Southwest 455 524 40,000  Level FlightAware Transoceanic
Wed 05:15:00 PM 22.8845 -53.2728 223° Southwest 455 524 40,000  Level FlightAware Transoceanic
Wed 05:16:00 PM 22.7918 -53.3667 223° Southwest 455 524 40,000  Level FlightAware Transoceanic
Wed 05:17:00 PM 22.6991 -53.4604 223° Southwest 455 524 40,000  Level FlightAware Transoceanic
Wed 05:18:00 PM 22.6063 -53.5541 223° Southwest 455 524 40,000  Level FlightAware Transoceanic
Wed 05:19:00 PM 22.5135 -53.6476 223° Southwest 455 524 40,000  Level FlightAware Transoceanic
Wed 05:20:00 PM 22.4206 -53.7409 223° Southwest 455 524 40,000  Level FlightAware Transoceanic
Wed 05:21:00 PM 22.3277 -53.8342 223° Southwest 455 524 40,000  Level FlightAware Transoceanic
Wed 05:22:00 PM 22.2347 -53.9273 223° Southwest 455 524 40,000  Level FlightAware Transoceanic
Wed 05:23:00 PM 22.1416 -54.0203 223° Southwest 455 524 40,000  Level FlightAware Transoceanic
Wed 05:24:00 PM 22.0485 -54.1132 223° Southwest 455 524 40,000  Level FlightAware Transoceanic
Wed 05:25:00 PM 21.9554 -54.2060 223° Southwest 455 524 40,000  Level FlightAware Transoceanic
Wed 05:26:00 PM 21.8622 -54.2986 223° Southwest 455 524 40,000  Level FlightAware Transoceanic
Wed 05:27:00 PM 21.7689 -54.3911 223° Southwest 455 524 40,000  Level FlightAware Transoceanic
Wed 05:28:00 PM 21.6756 -54.4835 223° Southwest 455 524 40,000  Level FlightAware Transoceanic
Wed 05:29:00 PM 21.5823 -54.5758 223° Southwest 455 524 40,000  Level FlightAware Transoceanic
Wed 05:30:00 PM 21.4889 -54.6679 223° Southwest 455 524 40,000  Level FlightAware Transoceanic
Wed 05:31:00 PM 21.3954 -54.7600 222° Southwest 455 524 40,000  Level FlightAware Transoceanic
Wed 05:32:00 PM 21.3019 -54.8519 222° Southwest 455 524 40,000  Level FlightAware Transoceanic
Wed 05:33:00 PM 21.2084 -54.9437 222° Southwest 455 524 40,000  Level FlightAware Transoceanic
Wed 05:34:00 PM 21.1148 -55.0354 222° Southwest 455 524 40,000  Level FlightAware Transoceanic
Wed 05:35:00 PM 21.0211 -55.1269 222° Southwest 455 524 40,000  Level FlightAware Transoceanic
Wed 05:36:00 PM 20.9274 -55.2184 222° Southwest 455 524 40,000  Level FlightAware Transoceanic
Wed 05:37:00 PM 20.8337 -55.3097 222° Southwest 455 524 40,000  Level FlightAware Transoceanic
Wed 05:38:00 PM 20.7399 -55.4010 222° Southwest 455 524 40,000  Level FlightAware Transoceanic
Wed 05:39:00 PM 20.6460 -55.4921 222° Southwest 455 524 40,000  Level FlightAware Transoceanic
Wed 05:40:00 PM 20.5521 -55.5831 222° Southwest 455 524 40,000  Level FlightAware Transoceanic
Wed 05:41:00 PM 20.4582 -55.6740 222° Southwest 455 524 40,000  Level FlightAware Transoceanic
Wed 05:42:00 PM 20.3642 -55.7648 222° Southwest 455 524 40,000  Level FlightAware Transoceanic
Wed 05:43:00 PM 20.2702 -55.8554 222° Southwest 455 524 40,000  Level FlightAware Transoceanic
Wed 05:44:00 PM 20.1761 -55.9460 222° Southwest 455 524 40,000  Level FlightAware Transoceanic
Wed 05:45:00 PM 20.0820 -56.0365 222° Southwest 455 524 40,000  Level FlightAware Transoceanic
Wed 05:46:00 PM 19.9878 -56.1268 222° Southwest 455 524 40,000  Level FlightAware Transoceanic
Wed 05:47:00 PM 19.8936 -56.2170 222° Southwest 455 524 40,000  Level FlightAware Transoceanic
Wed 05:48:00 PM 19.7993 -56.3072 222° Southwest 455 524 40,000  Level FlightAware Transoceanic
Wed 05:49:00 PM 19.7050 -56.3972 222° Southwest 455 524 40,000  Level FlightAware Transoceanic
Wed 05:50:00 PM 19.6106 -56.4871 222° Southwest 455 524 40,000  Level FlightAware Transoceanic
Wed 05:51:00 PM 19.5162 -56.5769 222° Southwest 455 524 40,000  Level FlightAware Transoceanic
Wed 05:52:00 PM 19.4218 -56.6666 222° Southwest 455 524 40,000  Level FlightAware Transoceanic
Wed 05:53:00 PM 19.3273 -56.7562 222° Southwest 455 524 40,000  Level FlightAware Transoceanic
Wed 05:54:00 PM 19.2328 -56.8457 222° Southwest 455 524 40,000  Level FlightAware Transoceanic
Wed 05:55:00 PM 19.1382 -56.9351 222° Southwest 455 524 40,000  Level FlightAware Transoceanic
Wed 05:56:00 PM 19.0436 -57.0244 222° Southwest 455 524 40,000  Level FlightAware Transoceanic
Wed 05:57:00 PM 18.9489 -57.1136 222° Southwest 455 524 40,000  Level FlightAware Transoceanic
Wed 05:58:00 PM 18.8542 -57.2027 222° Southwest 455 524 40,000  Level FlightAware Transoceanic
Wed 05:59:00 PM 18.7595 -57.2916 222° Southwest 455 524 40,000  Level FlightAware Transoceanic
Wed 06:00:00 PM 18.6647 -57.3805 222° Southwest 455 524 40,000  Level FlightAware Transoceanic
Wed 06:01:00 PM 18.5698 -57.4693 222° Southwest 455 524 40,000  Level FlightAware Transoceanic
Wed 06:02:00 PM 18.4750 -57.5580 222° Southwest 455 524 40,000  Level FlightAware Transoceanic
Wed 06:03:00 PM 18.3801 -57.6466 222° Southwest 455 524 40,000  Level FlightAware Transoceanic
Wed 06:04:00 PM 18.2851 -57.7351 221° Southwest 455 524 40,000  Level FlightAware Transoceanic
Wed 06:05:00 PM 18.1901 -57.8235 221° Southwest 455 524 40,000  Level FlightAware Transoceanic
Wed 06:06:00 PM 18.0951 -57.9118 221° Southwest 455 524 40,000  Level FlightAware Transoceanic
Wed 06:07:00 PM 18.0000 -58.0000 221° Southwest 455 524 40,000  Level FlightAware Transoceanic
Wed 06:08:00 PM 17.9030 -58.0877 221° Southwest 455 524 40,000  Level FlightAware Transoceanic
Wed 06:09:00 PM 17.8060 -58.1753 221° Southwest 455 524 40,000  Level FlightAware Transoceanic
Wed 06:10:00 PM 17.7089 -58.2628 221° Southwest 455 524 40,000  Level FlightAware Transoceanic
Wed 06:11:00 PM 17.6118 -58.3503 221° Southwest 455 524 40,000  Level FlightAware Transoceanic
Wed 06:12:00 PM 17.5146 -58.4376 221° Southwest 455 524 40,000  Level FlightAware Transoceanic
Wed 06:13:00 PM 17.4174 -58.5248 221° Southwest 455 524 40,000  Level FlightAware Transoceanic
Wed 06:14:00 PM 17.3202 -58.6120 221° Southwest 455 524 40,000  Level FlightAware Transoceanic
Wed 06:15:00 PM 17.2229 -58.6990 221° Southwest 455 524 40,000  Level FlightAware Transoceanic
Wed 06:16:00 PM 17.1256 -58.7860 220° Southwest 455 524 40,000  Level FlightAware Transoceanic
Wed 06:17:00 PM 17.0282 -58.8728 220° Southwest 455 524 40,000  Level FlightAware Transoceanic
Wed 06:17:07 PM 17.2440 -58.7820 220° Southwest 452 520 40,000  Level FlightAware ADS-B
Wed 06:17:48 PM 17.1640 -58.8740 228° Southwest 455 524 40,000  Level FlightAware ADS-B
Wed 06:18:30 PM 17.1020 -58.9450 228° Southwest 456 525 40,000  Level FlightAware ADS-B
Wed 06:19:07 PM 17.0480 -59.0070 228° Southwest 456 525 40,000  Level FlightAware ADS-B
Wed 06:19:47 PM 16.9900 -59.0730 227° Southwest 456 525 40,000  Level FlightAware ADS-B
Wed 06:20:28 PM 16.9330 -59.1390 228° Southwest 455 524 40,000  Level FlightAware ADS-B
Wed 06:21:05 PM 16.8780 -59.2020 228° Southwest 455 524 40,000  Level FlightAware ADS-B
Wed 06:21:50 PM 16.8070 -59.2820 227° Southwest 456 525 40,000  Level FlightAware ADS-B
Wed 06:22:33 PM 16.7490 -59.3480 227° Southwest 456 525 40,000  Level FlightAware ADS-B
Wed 06:23:19 PM 16.6840 -59.4220 227° Southwest 458 527 40,000  Level FlightAware ADS-B
Wed 06:24:01 PM 16.6220 -59.4920 227° Southwest 460 529 40,000  Level FlightAware ADS-B
Wed 06:24:33 PM 16.5770 -59.5420 227° Southwest 461 531 40,000  Level FlightAware ADS-B
Wed 06:25:16 PM 16.5140 -59.6140 228° Southwest 460 529 40,000  Level FlightAware ADS-B
Wed 06:26:00 PM 16.4500 -59.6870 228° Southwest 460 529 40,000  Level FlightAware ADS-B
Wed 06:26:36 PM 16.3990 -59.7440 227° Southwest 460 529 40,000  Level FlightAware ADS-B
Wed 06:27:13 PM 16.3480 -59.8020 228° Southwest 459 528 40,000  Level FlightAware ADS-B
Wed 06:27:55 PM 16.2840 -59.8740 227° Southwest 461 531 40,000  Level FlightAware ADS-B
Wed 06:28:40 PM 16.2250 -59.9410 227° Southwest 461 531 40,000  Level FlightAware ADS-B
Wed 06:29:21 PM 16.1610 -60.0130 227° Southwest 461 531 40,000  Level FlightAware ADS-B
Wed 06:30:48 PM 16.0460 -60.1420 227° Southwest 460 529 40,000  Level FlightAware ADS-B
Wed 06:31:33 PM 15.9690 -60.2280 227° Southwest 460 529 40,000  Level FlightAware ADS-B
Wed 06:32:07 PM 15.9190 -60.2850 228° Southwest 461 531 40,000  Level FlightAware ADS-B
Wed 06:32:55 PM 15.8510 -60.3610 227° Southwest 461 531 40,000  Level FlightAware ADS-B
Wed 06:33:37 PM 15.7920 -60.4270 227° Southwest 461 531 40,000  Level FlightAware ADS-B
Wed 06:34:18 PM 15.7260 -60.5010 227° Southwest 461 531 40,000  Level FlightAware ADS-B
Wed 06:35:00 PM 15.6690 -60.5650 227° Southwest 461 531 40,000  Level FlightAware ADS-B
Wed 06:35:40 PM 15.6110 -60.6290 227° Southwest 460 529 40,000  Level FlightAware ADS-B
Wed 06:36:25 PM 15.5440 -60.7040 227° Southwest 461 531 40,000  Level FlightAware ADS-B
Wed 06:37:05 PM 15.4870 -60.7670 227° Southwest 462 532 40,000  Level FlightAware ADS-B
Wed 06:37:49 PM 15.4200 -60.8420 227° Southwest 462 532 40,000  Level FlightAware ADS-B
Wed 06:38:28 PM 15.3650 -60.9030 227° Southwest 462 532 40,000  Level FlightAware ADS-B
Wed 06:39:18 PM 15.2930 -60.9830 227° Southwest 461 531 40,000  Level FlightAware ADS-B
Wed 06:40:00 PM 15.2350 -61.0480 227° Southwest 461 531 40,000  Level FlightAware ADS-B
Wed 06:40:42 PM 15.1740 -61.1160 227° Southwest 460 529 40,000  Level FlightAware ADS-B
Wed 06:41:25 PM 15.1080 -61.1880 226° Southwest 459 528 40,000  Level FlightAware ADS-B
Wed 06:42:05 PM 15.0530 -61.2500 227° Southwest 460 529 40,000  Level FlightAware ADS-B
Wed 06:42:45 PM 14.9920 -61.3170 227° Southwest 461 531 40,000  Level FlightAware ADS-B
Wed 06:43:30 PM 14.9250 -61.3900 226° Southwest 462 532 40,000  Level FlightAware ADS-B
Wed 06:44:12 PM 14.8630 -61.4590 227° Southwest 463 533 40,000  Level FlightAware ADS-B
Wed 06:44:45 PM 14.8150 -61.5130 227° Southwest 463 533 40,000  Level FlightAware ADS-B
Wed 06:45:27 PM 14.7550 -61.5780 226° Southwest 464 534 40,000  Level FlightAware ADS-B
Wed 06:46:25 PM 14.6660 -61.6760 227° Southwest 464 534 40,000  Level FlightAware ADS-B
Wed 06:47:05 PM 14.6080 -61.7410 227° Southwest 464 534 40,000  Level FlightAware ADS-B
Wed 06:47:49 PM 14.5490 -61.8050 226° Southwest 465 535 40,000  Level FlightAware ADS-B
Wed 06:48:31 PM 14.4830 -61.8770 227° Southwest 466 536 40,000  Level FlightAware ADS-B
Wed 06:49:16 PM 14.4160 -61.9510 227° Southwest 466 536 40,000  Level FlightAware ADS-B
Wed 06:49:55 PM 14.3590 -62.0130 227° Southwest 466 536 40,000  Level FlightAware ADS-B
Wed 06:50:32 PM 14.3040 -62.0740 227° Southwest 466 536 40,000  Level FlightAware ADS-B
Wed 06:51:18 PM 14.2310 -62.1540 227° Southwest 467 537 40,000  Level FlightAware ADS-B
Wed 06:52:00 PM 14.1720 -62.2180 226° Southwest 467 537 40,000  Level FlightAware ADS-B
Wed 06:52:42 PM 14.1100 -62.2860 227° Southwest 467 537 40,000  Level FlightAware ADS-B
Wed 06:53:18 PM 14.0590 -62.3410 226° Southwest 467 537 40,000  Level FlightAware ADS-B
Wed 06:54:01 PM 13.9920 -62.4150 227° Southwest 467 537 40,000  Level FlightAware ADS-B
Wed 06:54:43 PM 13.9330 -62.4790 226° Southwest 466 536 40,000  Level FlightAware ADS-B
Wed 06:55:25 PM 13.8710 -62.5460 226° Southwest 466 536 40,000  Level FlightAware ADS-B
Wed 06:56:07 PM 13.8100 -62.6130 227° Southwest 468 539 40,000  Level FlightAware ADS-B
Wed 06:56:46 PM 13.7480 -62.6800 226° Southwest 469 540 40,000  Level FlightAware ADS-B
Wed 06:57:34 PM 13.6780 -62.7560 227° Southwest 470 541 40,000  Level FlightAware ADS-B
Wed 06:58:18 PM 13.6130 -62.8270 227° Southwest 471 542 40,000  Level FlightAware ADS-B
Wed 06:59:03 PM 13.5440 -62.9020 227° Southwest 471 542 40,000  Level FlightAware ADS-B
Wed 06:59:43 PM 13.4880 -62.9620 226° Southwest 471 542 40,000  Level FlightAware ADS-B
Wed 07:00:40 PM 13.3950 -63.0630 227° Southwest 471 542 40,000  Level FlightAware ADS-B
Wed 07:01:38 PM 13.3180 -63.1460 226° Southwest 471 542 40,000  Level FlightAware ADS-B
Wed 07:02:14 PM 13.2720 -63.1950 226° Southwest 471 542 40,000  Level FlightAware ADS-B
Wed 07:03:00 PM 13.1930 -63.2800 226° Southwest 469 540 40,000  Level FlightAware ADS-B
Wed 07:03:36 PM 13.1470 -63.3290 226° Southwest 469 540 40,000  Level FlightAware ADS-B
Wed 07:04:12 PM 13.1010 -63.3780 226° Southwest 469 540 40,000  Level FlightAware ADS-B
Wed 07:05:01 PM 13.0380 -63.4450 226° Southwest 469 540 40,000  Level FlightAware ADS-B
Wed 07:05:37 PM 12.9920 -63.4940 226° Southwest 469 540 40,000  Level FlightAware ADS-B
Wed 07:06:13 PM 12.9460 -63.5430 226° Southwest 469 540 40,000  Level FlightAware ADS-B
Wed 07:07:14 PM 12.8680 -63.6260 226° Southwest 469 540 40,000  Level FlightAware ADS-B
Wed 07:07:50 PM 12.8220 -63.6750 226° Southwest 469 540 40,000  Level FlightAware ADS-B
Wed 07:08:38 PM 12.7600 -63.7400 226° Southwest 469 540 40,000  Level FlightAware ADS-B
Wed 07:09:14 PM 12.7140 -63.7890 226° Southwest 469 540 40,000  Level FlightAware ADS-B
Wed 07:10:02 PM 12.6530 -63.8540 226° Southwest 469 540 40,000  Level FlightAware ADS-B
Wed 07:10:38 PM 12.6070 -63.9030 226° Southwest 469 540 40,000  Level FlightAware ADS-B
Wed 07:11:18 PM 12.5550 -63.9580 226° Southwest 469 540 40,000  Level FlightAware ADS-B
Wed 07:12:08 PM 12.4910 -64.0260 226° Southwest 469 540 40,000  Level FlightAware ADS-B
Wed 07:14:00 PM 12.3603 -64.2333 237° Southwest  Level FlightAware Approximate
Wed 07:15:00 PM 12.2902 -64.3443 237° Southwest  Level FlightAware Approximate
Wed 07:16:00 PM 12.2201 -64.4551 237° Southwest  Level FlightAware Approximate
Wed 07:17:00 PM 12.1499 -64.5660 237° Southwest  Level FlightAware Approximate
Wed 07:18:00 PM 12.0797 -64.6768 237° Southwest  Level FlightAware Approximate
Wed 07:19:00 PM 12.0094 -64.7875 237° Southwest  Level FlightAware Approximate
Wed 07:20:00 PM 11.9391 -64.8982 237° Southwest  Level FlightAware Approximate
Wed 07:21:00 PM 11.8688 -65.0088 237° Southwest  Level FlightAware Approximate
Wed 07:22:00 PM 11.7984 -65.1193 237° Southwest  Level FlightAware Approximate
Wed 07:23:00 PM 11.7280 -65.2298 237° Southwest  Level FlightAware Approximate
Wed 07:24:00 PM 11.6575 -65.3403 237° Southwest  Level FlightAware Approximate
Wed 07:25:00 PM 11.5870 -65.4507 237° Southwest  Level FlightAware Approximate
Wed 07:26:00 PM 11.5164 -65.5610 237° Southwest  Level FlightAware Approximate
Wed 07:27:00 PM 11.4458 -65.6713 237° Southwest  Level FlightAware Approximate
Wed 07:28:00 PM 11.3752 -65.7815 237° Southwest  Level FlightAware Approximate
Wed 07:29:00 PM 11.3045 -65.8916 237° Southwest  Level FlightAware Approximate
Wed 07:30:00 PM 11.2338 -66.0017 237° Southwest  Level FlightAware Approximate
Wed 07:31:00 PM 11.1630 -66.1118 237° Southwest  Level FlightAware Approximate
Wed 07:32:00 PM 11.0922 -66.2218 237° Southwest  Level FlightAware Approximate
Wed 07:33:00 PM 11.0213 -66.3318 237° Southwest  Level FlightAware Approximate
Wed 07:34:00 PM 10.9505 -66.4417 237° Southwest  Level FlightAware Approximate
Wed 07:34:35 PM 11.0760 -66.9050 237° Southwest 471 542 40,000  Level FlightAware ADS-B
Wed 07:35:13 PM 11.0380 -66.9810 243° Southwest 473 544 40,000  Level FlightAware ADS-B
Wed 07:36:00 PM 10.9920 -67.0720 243° Southwest 472 543 40,000  Level FlightAware ADS-B
Wed 07:36:33 PM 10.9580 -67.1390 243° Southwest 472 543 40,000  Level FlightAware ADS-B
Wed 07:37:15 PM 10.9160 -67.2230 243° Southwest 472 543 40,000  Level FlightAware ADS-B
Wed 07:37:59 PM 10.8720 -67.3100 243° Southwest 472 543 40,000  Level FlightAware ADS-B
Wed 07:38:39 PM 10.8320 -67.3900 243° Southwest 472 543 40,000  Level FlightAware ADS-B
Wed 07:39:22 PM 10.7890 -67.4730 242° Southwest 474 545 40,000  Level FlightAware ADS-B
Wed 07:40:03 PM 10.7450 -67.5510 240° Southwest 476 548 40,000  Level FlightAware ADS-B
Wed 07:40:39 PM 10.7050 -67.6220 240° Southwest 477 549 40,000  Level FlightAware ADS-B
Wed 07:41:21 PM 10.6590 -67.7050 241° Southwest 479 551 40,000  Level FlightAware ADS-B
Wed 07:42:13 PM 10.6080 -67.7960 240° Southwest 479 551 40,000  Level FlightAware ADS-B
Wed 07:43:02 PM 10.5620 -67.8770 240° Southwest 479 551 40,000  Level FlightAware ADS-B
Wed 07:43:39 PM 10.5270 -67.9380 240° Southwest 479 551 40,000  Level FlightAware ADS-B
Wed 07:44:21 PM 10.4620 -68.0590 241° Southwest 478 550 40,000  Level FlightAware ADS-B
Wed 07:44:59 PM 10.4220 -68.1310 241° Southwest 478 550 40,000  Level FlightAware ADS-B
Wed 07:45:48 PM 10.3760 -68.2120 240° Southwest 478 550 40,000  Level FlightAware ADS-B
Wed 07:46:24 PM 10.3420 -68.2710 240° Southwest 478 550 40,000  Level FlightAware ADS-B
Wed 07:47:27 PM 10.2590 -68.4220 241° Southwest 480 552 40,000  Level FlightAware ADS-B
Wed 07:48:07 PM 10.2170 -68.4980 241° Southwest 480 552 40,000  Level FlightAware ADS-B
Wed 07:48:47 PM 10.1730 -68.5770 241° Southwest 480 552 40,000  Level FlightAware ADS-B
Wed 07:49:31 PM 10.1240 -68.6640 240° Southwest 480 552 40,000  Level FlightAware ADS-B
Wed 07:50:11 PM 10.0810 -68.7420 241° Southwest 479 551 40,000  Level FlightAware ADS-B
Wed 07:50:49 PM 10.0430 -68.8070 239° Southwest 479 551 40,000  Level FlightAware ADS-B
Wed 07:51:37 PM 9.9980 -68.8870 240° Southwest 479 551 40,000  Level FlightAware ADS-B
Wed 07:52:13 PM 9.9640 -68.9460 240° Southwest 479 551 40,000  Level FlightAware ADS-B
Wed 07:53:02 PM 9.9180 -69.0280 240° Southwest 479 551 40,000  Level FlightAware ADS-B
Wed 07:53:38 PM 9.8840 -69.0870 240° Southwest 479 551 40,000  Level FlightAware ADS-B
Wed 07:54:14 PM 9.8500 -69.1470 240° Southwest 479 551 40,000  Level FlightAware ADS-B
Wed 07:55:02 PM 9.8050 -69.2260 240° Southwest 479 551 40,000  Level FlightAware ADS-B
Wed 07:55:38 PM 9.7710 -69.2860 240° Southwest 479 551 40,000  Level FlightAware ADS-B
Wed 07:56:14 PM 9.7370 -69.3450 240° Southwest 479 551 40,000  Level FlightAware ADS-B
Wed 07:57:02 PM 9.6920 -69.4250 240° Southwest 479 551 40,000  Level FlightAware ADS-B
Wed 07:57:38 PM 9.6580 -69.4840 240° Southwest 479 551 40,000  Level FlightAware ADS-B
Wed 07:58:26 PM 9.6130 -69.5640 240° Southwest 479 551 40,000  Level FlightAware ADS-B
Wed 07:59:03 PM 9.5780 -69.6250 240° Southwest 479 551 40,000  Level FlightAware ADS-B
Wed 08:00:03 PM 9.5220 -69.7240 240° Southwest 479 551 40,000  Level FlightAware ADS-B
Wed 08:02:00 PM 9.3948 -69.9442 240° Southwest  Level Estimated
Wed 08:03:00 PM 9.3296 -70.0571 240° Southwest  Level Estimated
Wed 08:04:00 PM 9.2643 -70.1699 240° Southwest  Level Estimated
Wed 08:05:00 PM 9.1989 -70.2827 240° Southwest  Level Estimated
Wed 08:06:00 PM 9.1336 -70.3955 240° Southwest  Level Estimated
Wed 08:07:00 PM 9.0681 -70.5082 240° Southwest  Level Estimated
Wed 08:08:00 PM 9.0027 -70.6209 240° Southwest  Level Estimated
Wed 08:09:00 PM 8.9372 -70.7335 240° Southwest  Level Estimated
Wed 08:10:00 PM 8.8717 -70.8461 240° Southwest  Level Estimated
Wed 08:11:00 PM 8.8062 -70.9586 239° Southwest  Level Estimated
Wed 08:12:00 PM 8.7406 -71.0711 239° Southwest  Level Estimated
Wed 08:13:00 PM 8.6750 -71.1836 239° Southwest  Level Estimated
Wed 08:14:00 PM 8.6094 -71.2960 239° Southwest  Level Estimated
Wed 08:15:00 PM 8.5437 -71.4084 239° Southwest  Level Estimated
Wed 08:16:00 PM 8.4780 -71.5208 239° Southwest  Level Estimated
Wed 08:17:00 PM 8.4122 -71.6331 239° Southwest  Level Estimated
Wed 08:18:00 PM 8.3465 -71.7454 239° Southwest  Level Estimated
Wed 08:19:00 PM 8.2807 -71.8576 239° Southwest  Level Estimated
Wed 08:20:00 PM 8.2148 -71.9698 239° Southwest  Level Estimated
Wed 08:21:00 PM 8.1490 -72.0819 239° Southwest  Level Estimated
Wed 08:22:00 PM 8.0831 -72.1941 239° Southwest  Level Estimated
Wed 08:23:00 PM 8.0171 -72.3062 239° Southwest  Level Estimated
Wed 08:24:00 PM 7.9512 -72.4182 239° Southwest  Level Estimated
Wed 08:25:00 PM 7.8852 -72.5302 239° Southwest  Level Estimated
Wed 08:26:00 PM 7.8192 -72.6422 239° Southwest  Level Estimated
Wed 08:27:00 PM 7.7531 -72.7541 239° Southwest  Level Estimated
Wed 08:27:18 PM 7.5650 -73.0410 239° Southwest 485 558 40,000  Level FlightAware ADS-B
Wed 08:28:09 PM 7.5010 -73.1330 235° Southwest 487 560 40,000  Level FlightAware ADS-B
Wed 08:28:43 PM 7.4550 -73.1980 234° Southwest 488 562 40,000  Level FlightAware ADS-B
Wed 08:29:33 PM 7.3770 -73.2840 228° Southwest 489 563 40,000  Level FlightAware ADS-B
Wed 08:29:53 PM 7.3480 -73.3120 224° Southwest 489 563 40,000  Level FlightAware ADS-B
Wed 08:31:12 PM 7.2190 -73.4440 225° Southwest 488 562 40,000  Level FlightAware ADS-B
Wed 08:31:56 PM 7.1450 -73.5130 223° Southwest 491 565 40,000  Level FlightAware ADS-B
Wed 08:32:36 PM 7.0770 -73.5720 221° Southwest 491 565 40,000  Level FlightAware ADS-B
Wed 08:33:20 PM 7.0000 -73.6380 220° Southwest 492 566 40,000  Level FlightAware ADS-B
Wed 08:34:00 PM 6.9310 -73.6980 221° Southwest 490 564 40,000  Level FlightAware ADS-B
Wed 08:34:36 PM 6.8700 -73.7510 221° Southwest 488 562 40,000 -474 Level FlightAware ADS-B
Wed 08:35:16 PM 6.8020 -73.8110 221° Southwest 488 562 39,400 -1,756 Descending FlightAware ADS-B
Wed 08:35:58 PM 6.7300 -73.8770 222° Southwest 498 573 37,600 -1,786 Descending FlightAware ADS-B
Wed 08:36:40 PM 6.6840 -73.9590 241° Southwest 488 562 36,900 -1,605 Descending FlightAware ADS-B
Wed 08:37:24 PM 6.6700 -74.0540 262° West 490 564 35,300 -2,500 Descending FlightAware ADS-B
Wed 08:38:04 PM 6.6590 -74.1480 263° West 498 573 33,400 -1,792 Descending FlightAware ADS-B
Wed 08:38:41 PM 6.6500 -74.2230 263° West 498 573 33,000 -282 Descending FlightAware ADS-B
Wed 08:39:29 PM 6.6390 -74.3170 263° West 498 573 33,000  Level FlightAware ADS-B
Wed 08:40:05 PM 6.6300 -74.3880 263° West 498 573 33,000  Level FlightAware ADS-B
Wed 08:40:53 PM 6.6190 -74.4820 263° West 498 573 33,000  Level FlightAware ADS-B
Wed 08:41:29 PM 6.6100 -74.5520 263° West 498 573 33,000  Level FlightAware ADS-B
Wed 08:42:17 PM 6.5990 -74.6460 263° West 498 573 33,000  Level FlightAware ADS-B
Wed 08:42:54 PM 6.5900 -74.7180 263° West 498 573 33,000  Level FlightAware ADS-B
Wed 08:43:42 PM 6.5780 -74.8120 263° West 498 573 33,000  Level FlightAware ADS-B
Wed 08:44:18 PM 6.5700 -74.8830 264° West 498 573 33,000  Level FlightAware ADS-B
Wed 08:45:06 PM 6.5580 -74.9770 263° West 498 573 33,000  Level FlightAware ADS-B
Wed 08:45:42 PM 6.5500 -75.0470 263° West 498 573 33,000  Level FlightAware ADS-B
Wed 08:46:31 PM 6.5380 -75.1430 263° West 498 573 33,000  Level FlightAware ADS-B
Wed 08:47:08 PM 6.5290 -75.2150 263° West 498 573 33,000  Level FlightAware ADS-B
Wed 08:47:56 PM 6.5180 -75.3090 263° West 498 573 33,000  Level FlightAware ADS-B
Wed 08:50:00 PM 6.2640 -75.3910 198° South  Level Estimated
Wed 08:51:00 PM 6.1645 -75.4231 198° South  Level Estimated
Wed 08:52:00 PM 6.1645 -75.4231 166° South  Level Estimated
Wed 08:53:00 PM 6.1645 -75.4231 166° South  Level Estimated
Wed 08:54:00 PM 6.1645 -75.4231 166° South  Level Estimated
Wed 08:55:00 PM 6.1645 -75.4231 166° South  Level Estimated

Login

Don't have an account? Register now (free) for customized features, flight alerts, and more!